world map with PRN marked

PRN - Airport

This information may not be accurate or current and is not valid for navigation or flight planning. No warranty of fitness for any purpose is made or implied.

flag of Kosovo

Donate via PayPal

Additional information is available on the NEW Great Circle Mapper

Location
City:  Pristina, Kosovo
Near (Alt.):Prishtinė, Prishtina
Name:Pristina International Airport
ICAO / IATA:BKPR / PRN

Details
Type:Airport (Aerodrome, Airfield)
Use:Public/Civil, Military
Latitude:42°34'22"N (42.572778)
Longitude:21°02'09"E (21.035833)
Elevation:1789 ft (545 m)
Runways:1
Longest:8202 × 148 ft (2500 × 45 m)

Weather
METAR:BKPR  041430Z 36015KT 9999 SCT030 BKN070 05/01 Q1022 NOSIG RMK 17010095
TAF:BKPR  041130Z 0412/0512 01012KT 9999 BKN030 TEMPO 0412/0418 01025KT RA

Related Locations
Nearby:
Farthest:CHT: 11555 mi / 18596 km
Waitangi [Tuuta], CIT, NZ

Find:

   beyond  
but within

Other Information
Maps:
Links:
Sources:

  


 


Great Circle Mapper   Great Circle Mapper
Great Circle Mapper FAQ   Great Circle Mapper FAQ
  Karl's Home Page
KLS²   KLS² Home
   GC on Facebook
Airlines of the World   Airlines of the World
Donate via PayPal


Copyright © 2004-2019, Karl L. Swartz. All rights reserved.
All trademarks mentioned herein belong to their respective owners.

Please see credits for attribution and copyright information.

Karl Swartz <karl@kls2.com>
  Powered by FreeBSD
Valid HTML 4.01!
Labeled with ICRA
hCard Microformat
Geo Microformat